createdAt,value
2019-01-30T00:01:22.686Z,6.40
2019-01-30T00:03:50.383Z,5.60
2019-01-30T00:06:18.243Z,5.63
2019-01-30T00:08:46.123Z,5.43
2019-01-30T00:11:13.829Z,6.27
2019-01-30T00:13:41.339Z,7.07
2019-01-30T00:16:08.907Z,6.07
2019-01-30T00:18:36.814Z,8.60
2019-01-30T00:21:04.504Z,6.93
2019-01-30T00:23:32.135Z,8.93
2019-01-30T00:25:59.791Z,6.00
2019-01-30T00:28:27.657Z,6.87
2019-01-30T00:30:55.220Z,5.03
2019-01-30T00:33:23.028Z,6.33
2019-01-30T00:35:50.682Z,8.73
2019-01-30T00:38:18.295Z,6.93
2019-01-30T00:40:45.894Z,5.30
2019-01-30T00:43:13.562Z,5.43
2019-01-30T00:45:41.183Z,5.77
2019-01-30T00:48:08.845Z,8.17
2019-01-30T00:50:38.388Z,7.23
2019-01-30T00:53:05.883Z,6.53
2019-01-30T00:55:33.532Z,8.63
2019-01-30T00:58:01.114Z,5.60
2019-01-30T01:00:28.835Z,8.03
2019-01-30T01:02:56.664Z,2.97
2019-01-30T01:05:24.428Z,4.37
2019-01-30T01:07:52.072Z,4.10
2019-01-30T01:10:20.109Z,7.30
2019-01-30T01:12:47.710Z,5.90
2019-01-30T01:15:15.444Z,5.47
2019-01-30T01:17:43.091Z,29.47
2019-01-30T01:20:12.048Z,10.73
2019-01-30T01:22:39.846Z,8.60
2019-01-30T01:25:10.457Z,9.27
2019-01-30T01:27:38.060Z,8.97
2019-01-30T01:30:08.632Z,7.67
2019-01-30T01:32:36.289Z,17.50
2019-01-30T01:35:05.113Z,13.47
2019-01-30T01:37:32.883Z,5.20
2019-01-30T01:40:00.704Z,5.63
2019-01-30T01:42:28.466Z,6.60
2019-01-30T01:44:56.178Z,6.07
2019-01-30T01:47:24.153Z,4.53
2019-01-30T01:49:51.811Z,6.43
2019-01-30T01:52:19.485Z,4.27
2019-01-30T01:54:47.079Z,6.83
2019-01-30T01:57:14.550Z,6.03
2019-01-30T01:59:42.076Z,6.83
2019-01-30T02:02:09.640Z,12.47
2019-01-30T02:04:37.291Z,12.07
2019-01-30T02:07:05.046Z,11.37
2019-01-30T02:09:32.850Z,15.13
2019-01-30T02:12:00.442Z,14.93
2019-01-30T02:14:28.140Z,10.83
2019-01-30T02:16:55.676Z,9.17
2019-01-30T02:19:23.564Z,9.17
2019-01-30T02:21:51.111Z,12.93
2019-01-30T02:24:18.767Z,13.47
2019-01-30T02:26:46.316Z,12.10
2019-01-30T02:29:13.901Z,12.80
2019-01-30T02:31:41.371Z,17.53
2019-01-30T02:34:08.950Z,11.43
2019-01-30T02:36:55.244Z,14.03
2019-01-30T02:39:22.818Z,12.90
2019-01-30T02:41:50.518Z,10.87
2019-01-30T02:44:18.089Z,13.47
2019-01-30T02:46:45.726Z,17.73
2019-01-30T02:49:13.301Z,9.03
2019-01-30T02:51:40.807Z,11.57
2019-01-30T02:54:08.595Z,14.97
2019-01-30T02:56:36.246Z,8.27
2019-01-30T02:59:03.981Z,5.93
2019-01-30T03:01:34.259Z,6.67
2019-01-30T03:04:02.084Z,6.10
2019-01-30T03:06:29.776Z,9.13
2019-01-30T03:08:57.439Z,5.70
2019-01-30T03:11:25.295Z,4.67
2019-01-30T03:13:52.874Z,6.30
2019-01-30T03:16:20.664Z,5.00
2019-01-30T03:18:48.198Z,7.97
2019-01-30T03:21:15.882Z,12.47
2019-01-30T03:23:43.705Z,18.50
2019-01-30T03:26:11.373Z,9.77
2019-01-30T03:28:39.025Z,9.97
2019-01-30T03:31:17.238Z,17.03
2019-01-30T03:33:36.692Z,18.27
2019-01-30T03:36:04.318Z,16.40
2019-01-30T03:38:32.089Z,15.60
2019-01-30T03:40:59.692Z,14.43
2019-01-30T03:43:27.303Z,13.60
2019-01-30T03:45:54.990Z,15.77
2019-01-30T03:48:23.073Z,12.13
2019-01-30T03:50:51.329Z,13.97
2019-01-30T03:53:19.034Z,13.23
2019-01-30T03:55:46.967Z,11.33
2019-01-30T03:58:14.493Z,17.67
2019-01-30T04:00:42.193Z,14.80
2019-01-30T04:03:10.025Z,14.53
2019-01-30T04:05:37.686Z,11.93
2019-01-30T04:08:05.379Z,14.27
2019-01-30T04:10:33.335Z,14.60
2019-01-30T04:13:00.928Z,12.77
2019-01-30T04:15:28.926Z,13.80
2019-01-30T04:17:56.733Z,12.67
2019-01-30T04:20:24.509Z,9.20
2019-01-30T04:22:52.439Z,12.60
2019-01-30T04:25:20.120Z,8.43
2019-01-30T04:27:47.796Z,9.77
2019-01-30T04:30:17.797Z,10.53
2019-01-30T04:32:45.463Z,9.87
2019-01-30T04:35:13.176Z,8.50
2019-01-30T04:37:40.968Z,9.83
2019-01-30T04:40:11.926Z,11.47
2019-01-30T04:42:39.760Z,7.00
2019-01-30T04:45:09.559Z,9.50
2019-01-30T04:47:37.627Z,7.87
2019-01-30T04:50:05.503Z,6.90
2019-01-30T04:52:33.177Z,8.20
2019-01-30T04:55:00.836Z,6.97
2019-01-30T04:57:28.561Z,8.67
2019-01-30T04:59:56.306Z,8.53
2019-01-30T05:02:24.010Z,7.17
2019-01-30T05:04:51.922Z,10.10
2019-01-30T05:07:19.757Z,8.23
2019-01-30T05:09:47.721Z,8.50
2019-01-30T05:12:15.685Z,8.83
2019-01-30T05:14:43.789Z,7.20
2019-01-30T05:17:11.566Z,7.93
2019-01-30T05:19:39.238Z,6.77
2019-01-30T05:22:07.073Z,7.20
2019-01-30T05:24:34.785Z,6.30
2019-01-30T05:27:02.707Z,8.20
2019-01-30T05:29:30.491Z,13.63
2019-01-30T05:32:01.282Z,7.63
2019-01-30T05:34:28.031Z,8.20
2019-01-30T05:36:55.851Z,6.40
2019-01-30T05:39:23.993Z,7.83
2019-01-30T05:41:51.710Z,4.13
2019-01-30T05:44:19.613Z,4.07
2019-01-30T05:46:47.427Z,4.40
2019-01-30T05:49:15.443Z,4.33
2019-01-30T05:51:43.864Z,6.87
2019-01-30T05:54:11.648Z,4.43
2019-01-30T05:56:39.966Z,4.50
2019-01-30T05:59:08.954Z,4.87
2019-01-30T06:01:36.852Z,4.37
2019-01-30T06:04:04.537Z,4.43
2019-01-30T06:06:32.606Z,2.90
2019-01-30T06:09:00.579Z,4.00
2019-01-30T06:11:29.133Z,3.27
2019-01-30T06:13:56.974Z,7.47
2019-01-30T06:16:24.832Z,3.13
2019-01-30T06:18:53.151Z,4.97
2019-01-30T06:21:21.218Z,4.77
2019-01-30T06:23:49.279Z,6.20
2019-01-30T06:26:17.250Z,4.27
2019-01-30T06:28:45.211Z,3.87
2019-01-30T06:31:13.022Z,5.27
2019-01-30T06:33:40.927Z,2.70
2019-01-30T06:36:08.867Z,4.47
2019-01-30T06:38:37.493Z,11.67
2019-01-30T06:41:07.190Z,12.63
2019-01-30T06:43:35.661Z,18.07
2019-01-30T06:46:04.684Z,13.37
2019-01-30T06:48:32.899Z,10.20
2019-01-30T06:51:01.016Z,10.83
2019-01-30T06:53:30.021Z,12.53
2019-01-30T06:55:58.923Z,15.47
2019-01-30T06:58:27.858Z,10.17
2019-01-30T07:00:56.480Z,13.60
2019-01-30T07:03:26.161Z,6.47
2019-01-30T07:05:54.535Z,9.03
2019-01-30T07:08:22.621Z,12.50
2019-01-30T07:10:50.797Z,7.80
2019-01-30T07:13:19.029Z,5.63
2019-01-30T07:15:47.589Z,11.60
2019-01-30T07:18:16.120Z,8.13
2019-01-30T07:20:45.071Z,7.40
2019-01-30T07:23:13.151Z,6.27
2019-01-30T07:25:41.387Z,5.07
2019-01-30T07:28:09.354Z,6.50
2019-01-30T07:30:37.513Z,9.03
2019-01-30T07:33:06.449Z,5.03
2019-01-30T07:35:34.336Z,4.63
2019-01-30T07:38:02.243Z,6.57
2019-01-30T07:40:30.226Z,7.33
2019-01-30T07:42:58.425Z,4.83
2019-01-30T07:45:27.957Z,4.23
2019-01-30T07:48:00.349Z,6.57
2019-01-30T07:50:31.774Z,4.90
2019-01-30T07:53:00.968Z,9.57
2019-01-30T07:55:29.553Z,7.67
2019-01-30T07:57:57.656Z,4.17
2019-01-30T08:00:33.118Z,7.83
2019-01-30T08:03:01.701Z,6.43
2019-01-30T08:05:29.722Z,7.17
2019-01-30T08:07:57.958Z,4.53
2019-01-30T08:10:25.894Z,4.17
2019-01-30T08:12:54.036Z,3.87
2019-01-30T08:15:23.391Z,14.10
2019-01-30T08:17:51.810Z,8.07
2019-01-30T08:20:20.937Z,16.00
2019-01-30T08:22:49.191Z,5.63
2019-01-30T08:25:19.225Z,3.83
2019-01-30T08:27:48.429Z,4.77
2019-01-30T08:30:23.380Z,6.47
2019-01-30T08:32:51.889Z,5.63
2019-01-30T08:35:20.182Z,5.53
2019-01-30T08:37:48.307Z,3.73
2019-01-30T08:40:16.945Z,5.83
2019-01-30T08:42:44.981Z,5.60
2019-01-30T08:45:15.954Z,15.60
2019-01-30T08:47:44.472Z,6.43
2019-01-30T08:50:12.586Z,6.03
2019-01-30T08:52:40.521Z,10.13
2019-01-30T08:55:08.649Z,7.00
2019-01-30T08:57:36.690Z,11.00
2019-01-30T09:00:07.751Z,7.60
2019-01-30T09:02:35.902Z,7.13
2019-01-30T09:05:04.747Z,4.40
2019-01-30T09:07:43.621Z,6.73
2019-01-30T09:10:02.960Z,6.97
2019-01-30T09:12:31.212Z,11.13
2019-01-30T09:15:00.056Z,12.47
2019-01-30T09:17:28.152Z,11.00
2019-01-30T09:19:56.141Z,8.13
2019-01-30T09:22:25.485Z,9.50
2019-01-30T09:24:53.248Z,12.10
2019-01-30T09:27:21.385Z,11.47
2019-01-30T09:29:49.195Z,14.33
2019-01-30T09:32:17.305Z,11.00
2019-01-30T09:34:45.686Z,10.73
2019-01-30T09:37:13.481Z,8.53
2019-01-30T09:39:43.429Z,10.97
2019-01-30T09:42:11.546Z,9.67
2019-01-30T09:44:39.264Z,14.70
2019-01-30T09:47:07.205Z,8.70
2019-01-30T09:49:35.326Z,7.40
2019-01-30T09:52:03.004Z,11.30
2019-01-30T09:54:31.040Z,10.67
2019-01-30T09:56:58.999Z,9.00
2019-01-30T09:59:26.709Z,8.30
2019-01-30T10:01:54.680Z,11.53
2019-01-30T10:04:22.764Z,9.27
2019-01-30T10:06:50.804Z,10.87
2019-01-30T10:09:19.062Z,7.73
2019-01-30T10:11:47.177Z,9.10
2019-01-30T10:14:14.921Z,18.13
2019-01-30T10:16:43.456Z,10.50
2019-01-30T10:19:11.351Z,17.50
2019-01-30T10:21:39.573Z,14.97
2019-01-30T10:24:07.781Z,17.67
2019-01-30T10:26:35.746Z,12.50
2019-01-30T10:29:03.725Z,12.10
2019-01-30T10:31:32.493Z,23.70
2019-01-30T10:34:00.618Z,23.50
2019-01-30T10:36:28.411Z,24.97
2019-01-30T10:38:57.591Z,34.37
2019-01-30T10:41:25.316Z,29.07
2019-01-30T10:43:53.382Z,20.67
2019-01-30T10:46:21.594Z,20.43
2019-01-30T10:48:49.341Z,26.37
2019-01-30T10:51:19.783Z,19.33
2019-01-30T10:53:48.242Z,23.17
2019-01-30T10:56:17.570Z,22.43
2019-01-30T10:58:46.063Z,28.47
2019-01-30T11:01:13.825Z,29.47
2019-01-30T11:03:41.771Z,30.77
2019-01-30T11:06:09.638Z,28.27
2019-01-30T11:08:37.461Z,24.83
2019-01-30T11:11:07.899Z,27.20
2019-01-30T11:13:35.442Z,28.70
2019-01-30T11:16:04.110Z,28.43
2019-01-30T11:18:33.024Z,14.57
2019-01-30T11:21:01.185Z,30.70
2019-01-30T11:23:29.234Z,19.37
2019-01-30T11:25:58.205Z,26.73
2019-01-30T11:28:27.323Z,28.37
2019-01-30T11:30:57.750Z,22.97
2019-01-30T11:33:25.649Z,26.03
2019-01-30T11:35:54.738Z,28.43
2019-01-30T11:38:22.486Z,21.07
2019-01-30T11:40:51.029Z,24.70
2019-01-30T11:43:18.839Z,16.87
2019-01-30T11:45:46.674Z,19.83
2019-01-30T11:48:14.791Z,18.77
2019-01-30T11:50:42.784Z,18.13
2019-01-30T11:53:10.953Z,18.43
2019-01-30T11:55:39.076Z,14.90
2019-01-30T11:58:06.960Z,17.53
2019-01-30T12:00:38.536Z,17.90
2019-01-30T12:03:06.636Z,27.10
2019-01-30T12:05:35.244Z,27.67
2019-01-30T12:08:03.542Z,29.80
2019-01-30T12:10:31.573Z,21.13
2019-01-30T12:12:59.433Z,22.40
2019-01-30T12:15:28.535Z,19.10
2019-01-30T12:17:56.780Z,18.87
2019-01-30T12:20:24.516Z,18.47
2019-01-30T12:22:53.987Z,21.93
2019-01-30T12:25:22.239Z,11.80
2019-01-30T12:27:50.973Z,17.90
2019-01-30T12:30:21.114Z,24.77
2019-01-30T12:32:49.151Z,25.93
2019-01-30T12:35:21.679Z,21.87
2019-01-30T12:37:49.811Z,16.93
2019-01-30T12:40:18.368Z,17.60
2019-01-30T12:42:46.494Z,18.90
2019-01-30T12:45:39.274Z,30.73
2019-01-30T12:48:10.767Z,17.63
2019-01-30T12:50:39.185Z,24.47
2019-01-30T12:53:07.852Z,18.90
2019-01-30T12:55:35.605Z,21.83
2019-01-30T12:58:04.262Z,13.73
2019-01-30T13:00:38.807Z,23.77
2019-01-30T13:03:09.113Z,11.13
2019-01-30T13:05:37.153Z,11.47
2019-01-30T13:08:05.497Z,16.73
2019-01-30T13:10:33.514Z,11.47
2019-01-30T13:13:02.218Z,11.90
2019-01-30T13:15:30.240Z,15.50
2019-01-30T13:17:59.291Z,11.57
2019-01-30T13:20:27.404Z,16.40
2019-01-30T13:22:55.798Z,10.10
2019-01-30T13:25:26.432Z,10.63
2019-01-30T13:27:54.213Z,8.63
2019-01-30T13:30:24.881Z,12.37
2019-01-30T13:32:52.750Z,13.37
2019-01-30T13:35:20.565Z,11.93
2019-01-30T13:37:48.616Z,16.10
2019-01-30T13:40:22.185Z,9.03
2019-01-30T13:42:49.940Z,10.20
2019-01-30T13:45:17.806Z,6.00
2019-01-30T13:47:45.814Z,7.30
2019-01-30T13:50:16.466Z,13.97
2019-01-30T13:52:44.339Z,9.23
2019-01-30T13:55:12.412Z,7.20
2019-01-30T13:57:40.513Z,8.00
2019-01-30T14:00:21.654Z,6.17
2019-01-30T14:02:51.748Z,12.60
2019-01-30T14:05:19.676Z,7.63
2019-01-30T14:07:48.730Z,17.97
2019-01-30T14:10:20.440Z,12.37
2019-01-30T14:12:49.583Z,9.87
2019-01-30T14:15:20.758Z,11.63
2019-01-30T14:17:48.738Z,13.93
2019-01-30T14:20:16.908Z,11.73
2019-01-30T14:22:46.116Z,6.33
2019-01-30T14:25:14.379Z,5.57
2019-01-30T14:27:42.448Z,9.20
2019-01-30T14:30:16.958Z,7.17
2019-01-30T14:32:45.820Z,9.07
2019-01-30T14:35:13.928Z,8.57
2019-01-30T14:37:42.026Z,6.97
2019-01-30T14:40:10.686Z,8.87
2019-01-30T14:42:38.651Z,14.33
2019-01-30T14:45:08.747Z,10.67
2019-01-30T14:47:36.788Z,4.27
2019-01-30T14:50:06.251Z,10.47
2019-01-30T14:52:34.429Z,6.93
2019-01-30T14:55:02.355Z,8.50
2019-01-30T14:57:30.247Z,5.73
2019-01-30T14:59:58.243Z,10.70
2019-01-30T15:02:26.128Z,5.03
2019-01-30T15:04:53.970Z,6.53
2019-01-30T15:07:28.854Z,9.73
2019-01-30T15:09:51.572Z,11.83
2019-01-30T15:12:19.569Z,5.73
2019-01-30T15:14:47.286Z,3.73
2019-01-30T15:17:15.025Z,6.67
2019-01-30T15:19:42.634Z,8.80
2019-01-30T15:22:10.258Z,6.17
2019-01-30T15:24:37.943Z,8.10
2019-01-30T15:27:05.718Z,9.73
2019-01-30T15:29:33.886Z,9.17
2019-01-30T15:32:01.529Z,8.40
2019-01-30T15:34:29.274Z,10.57
2019-01-30T15:36:57.052Z,10.50
2019-01-30T15:39:24.701Z,8.67
2019-01-30T15:41:52.394Z,4.67
2019-01-30T15:44:20.232Z,4.23
2019-01-30T15:46:47.977Z,4.53
2019-01-30T15:49:15.819Z,5.50
2019-01-30T15:51:43.462Z,8.73
2019-01-30T15:54:11.164Z,10.27
2019-01-30T15:56:38.763Z,6.90
2019-01-30T15:59:09.047Z,8.57
2019-01-30T16:01:40.102Z,6.67
2019-01-30T16:04:10.482Z,3.37
2019-01-30T16:06:39.097Z,3.80
2019-01-30T16:09:09.408Z,4.30
2019-01-30T16:11:37.000Z,4.37
2019-01-30T16:14:05.098Z,3.43
2019-01-30T16:16:32.843Z,3.93
2019-01-30T16:19:00.616Z,3.87
2019-01-30T16:21:28.319Z,7.27
2019-01-30T16:23:56.172Z,5.40
2019-01-30T16:26:23.969Z,5.03
2019-01-30T16:28:51.771Z,3.40
2019-01-30T16:31:19.743Z,4.17
2019-01-30T16:33:47.680Z,3.10
2019-01-30T16:36:15.526Z,4.50
2019-01-30T16:38:44.150Z,3.57
2019-01-30T16:41:15.319Z,3.23
2019-01-30T16:43:43.914Z,4.13
2019-01-30T16:46:13.025Z,4.77
2019-01-30T16:48:42.009Z,4.27
2019-01-30T16:51:09.948Z,3.53
2019-01-30T16:53:38.722Z,4.70
2019-01-30T16:56:06.946Z,2.67
2019-01-30T16:58:34.915Z,2.80
2019-01-30T17:01:03.139Z,1.40
2019-01-30T17:03:30.922Z,2.20
2019-01-30T17:06:07.024Z,3.37
2019-01-30T17:08:28.515Z,2.37
2019-01-30T17:10:56.214Z,1.73
2019-01-30T17:13:23.905Z,3.30
2019-01-30T17:15:52.175Z,2.23
2019-01-30T17:18:19.914Z,7.53
2019-01-30T17:20:47.838Z,2.87
2019-01-30T17:23:16.278Z,2.57
2019-01-30T17:25:44.498Z,2.43
2019-01-30T17:28:12.958Z,3.23
2019-01-30T17:31:00.034Z,3.43
2019-01-30T17:33:27.948Z,5.37
2019-01-30T17:35:55.499Z,2.70
2019-01-30T17:38:25.231Z,5.17
2019-01-30T17:40:53.410Z,4.17
2019-01-30T17:43:21.217Z,2.63
2019-01-30T17:45:49.022Z,2.93
2019-01-30T17:48:19.169Z,5.77
2019-01-30T17:50:46.863Z,2.67
2019-01-30T17:53:16.741Z,4.47
2019-01-30T17:55:44.669Z,3.00
2019-01-30T17:58:12.578Z,2.93
2019-01-30T18:00:59.990Z,3.67
2019-01-30T18:03:27.903Z,3.00
2019-01-30T18:05:55.660Z,2.10
2019-01-30T18:08:23.886Z,4.67
2019-01-30T18:10:51.805Z,2.90
2019-01-30T18:13:20.028Z,3.20
2019-01-30T18:15:48.065Z,4.27
2019-01-30T18:18:15.869Z,2.83
2019-01-30T18:20:43.589Z,3.33
2019-01-30T18:23:11.482Z,2.33
2019-01-30T18:25:39.427Z,2.87
2019-01-30T18:28:07.084Z,4.27
2019-01-30T18:30:34.799Z,5.80
2019-01-30T18:33:02.768Z,3.63
2019-01-30T18:35:30.491Z,3.13
2019-01-30T18:37:58.228Z,2.13
2019-01-30T18:40:26.141Z,3.33
2019-01-30T18:42:54.036Z,3.07
2019-01-30T18:45:23.711Z,3.53
2019-01-30T18:47:51.373Z,3.77
2019-01-30T18:50:21.434Z,2.90
2019-01-30T18:52:49.305Z,2.13
2019-01-30T18:55:17.885Z,1.20
2019-01-30T18:57:45.748Z,2.50
2019-01-30T19:00:17.350Z,2.17
2019-01-30T19:02:45.232Z,2.90
2019-01-30T19:05:13.267Z,2.50
2019-01-30T19:07:41.029Z,1.80
2019-01-30T19:10:10.979Z,2.57
2019-01-30T19:12:38.969Z,2.13
2019-01-30T19:15:10.238Z,2.50
2019-01-30T19:17:38.684Z,1.60
2019-01-30T19:20:09.699Z,3.20
2019-01-30T19:22:37.548Z,2.00
2019-01-30T19:25:05.756Z,2.00
2019-01-30T19:27:33.933Z,4.03
2019-01-30T19:30:04.395Z,2.87
2019-01-30T19:32:31.908Z,2.13
2019-01-30T19:34:59.700Z,4.57
2019-01-30T19:37:27.646Z,3.30
2019-01-30T19:39:55.607Z,4.33
2019-01-30T19:42:23.615Z,5.00
2019-01-30T19:44:51.553Z,4.20
2019-01-30T19:47:19.550Z,4.10
2019-01-30T19:49:47.759Z,3.50
2019-01-30T19:52:15.656Z,5.30
2019-01-30T19:54:43.427Z,4.37
2019-01-30T19:57:11.136Z,4.63
2019-01-30T19:59:39.470Z,2.70
2019-01-30T20:02:08.192Z,4.27
2019-01-30T20:04:35.927Z,3.57
2019-01-30T20:07:14.255Z,3.63
2019-01-30T20:09:34.292Z,3.70
2019-01-30T20:12:02.392Z,3.73
2019-01-30T20:14:30.085Z,4.97
2019-01-30T20:16:58.110Z,4.63
2019-01-30T20:19:26.176Z,4.07
2019-01-30T20:21:53.930Z,3.70
2019-01-30T20:24:21.746Z,4.60
2019-01-30T20:26:49.649Z,5.60
2019-01-30T20:29:17.663Z,6.30
2019-01-30T20:31:45.271Z,3.40
2019-01-30T20:34:12.877Z,3.20
2019-01-30T20:36:40.656Z,3.13
2019-01-30T20:39:08.647Z,2.90
2019-01-30T20:41:36.331Z,3.80
2019-01-30T20:44:04.279Z,5.10
2019-01-30T20:46:32.000Z,3.23
2019-01-30T20:48:59.757Z,4.10
2019-01-30T20:51:27.578Z,3.80
2019-01-30T20:53:55.291Z,4.47
2019-01-30T20:56:23.007Z,3.53
2019-01-30T20:58:50.838Z,1.97
2019-01-30T21:01:18.529Z,4.10
2019-01-30T21:03:46.399Z,3.00
2019-01-30T21:06:14.234Z,4.40
2019-01-30T21:08:41.943Z,3.37
2019-01-30T21:11:09.723Z,3.20
2019-01-30T21:13:37.672Z,3.77
2019-01-30T21:16:05.310Z,4.13
2019-01-30T21:18:33.471Z,2.80
2019-01-30T21:21:01.238Z,3.17
2019-01-30T21:23:29.055Z,2.27
2019-01-30T21:25:56.781Z,3.13
2019-01-30T21:28:24.593Z,2.93
2019-01-30T21:30:52.621Z,2.77
2019-01-30T21:33:20.628Z,2.90
2019-01-30T21:35:48.558Z,2.43
2019-01-30T21:38:16.302Z,2.40
2019-01-30T21:40:43.978Z,3.23
2019-01-30T21:43:11.834Z,2.43
2019-01-30T21:45:39.588Z,3.33
2019-01-30T21:48:07.520Z,2.83
2019-01-30T21:50:35.326Z,2.33
2019-01-30T21:53:03.096Z,2.27
2019-01-30T21:55:31.076Z,2.23
2019-01-30T21:57:58.813Z,2.57
2019-01-30T22:00:27.852Z,3.60
2019-01-30T22:02:56.591Z,2.23
2019-01-30T22:05:24.477Z,3.63
2019-01-30T22:08:00.646Z,2.63
2019-01-30T22:10:24.533Z,1.97
2019-01-30T22:12:52.666Z,3.27
2019-01-30T22:15:20.419Z,3.90
2019-01-30T22:17:48.173Z,8.37
2019-01-30T22:20:18.323Z,6.37
2019-01-30T22:22:46.037Z,4.53
2019-01-30T22:25:20.522Z,5.50
2019-01-30T22:27:45.565Z,3.37
2019-01-30T22:30:18.886Z,5.67
2019-01-30T22:32:46.640Z,3.93
2019-01-30T22:35:14.527Z,4.43
2019-01-30T22:37:42.655Z,8.10
2019-01-30T22:40:11.161Z,4.57
2019-01-30T22:42:39.079Z,5.23
2019-01-30T22:45:08.109Z,8.23
2019-01-30T22:47:35.823Z,5.47
2019-01-30T22:50:04.914Z,5.57
2019-01-30T22:52:32.737Z,5.77
2019-01-30T22:55:00.422Z,4.87
2019-01-30T22:57:28.028Z,6.27
2019-01-30T22:59:55.822Z,9.67
2019-01-30T23:02:23.956Z,7.57
2019-01-30T23:05:12.843Z,7.43
2019-01-30T23:08:30.810Z,6.00
2019-01-30T23:11:18.722Z,5.93
2019-01-30T23:13:56.348Z,6.90
2019-01-30T23:17:17.850Z,5.93
2019-01-30T23:20:14.010Z,5.00
2019-01-30T23:22:58.529Z,8.30
2019-01-30T23:25:53.478Z,3.93
2019-01-30T23:28:39.729Z,5.67
2019-01-30T23:31:58.527Z,6.93
2019-01-30T23:35:06.810Z,4.90
2019-01-30T23:38:03.588Z,9.43
2019-01-30T23:41:03.588Z,5.87
2019-01-30T23:43:48.677Z,9.33
2019-01-30T23:47:07.289Z,6.37
2019-01-30T23:50:02.205Z,6.03
2019-01-30T23:53:13.746Z,9.63
2019-01-30T23:56:11.936Z,5.40
2019-01-30T23:58:49.648Z,6.67
